Kezdőlap
METAR-TAF:

METAR-TAF

Repülőterek :

Sanghaj-Putungi nemzetközi repülőtér

Sanghaj-Pudong, Kína

földrajzi szélesség: 31-07N, földrajzi hosszúság: 121-46E, magasság: 4 m

Jelenlegi meteorológiai megfigyelések

A jelentés 14 perccel ezelõtt készült, 08:00 UTC
Dél-délnyugati szél 10 kt
Hőmérséklet 35°C
Páratartalom 53%
Légköri nyomás 1007 hPa
Látótávolság 10 km, vagy több
felhőtlen 1500 m magasságban, és nincs gomolyfelhõ

METAR: ZSPD 130800Z 20005MPS CAVOK 35/24 Q1007 NOSIG

Idő: 16:14 (08:14 UTC)

Előrejelzés

A jelentés 5 órával és 4 perccel ezelõtt készült, 03:10 UTC
Az előrejelzés 13-én 06 óra UTC és 14-én 06 óra UTC között érvényes
Dél-délnyugati szél 8 kt
Látótávolság 10 km, vagy több
Szórványos felhőzet 2300 lábon

TAF: ZSPD 130310Z 1306/1406 20004MPS 9999 SCT023 TX37/1406Z TN28/1320Z

Meteorológiai megfigyelések és előrejelzések több, mint 4000 repülőtéren (METAR és TAF jelentéseket).

A térképen piros és sárga pontok jelzik az elérhető meteorológiai állomásokat.

Mozgassa az egeret a pont fölött, hogy megjelenjen az állomás neve.

Azután kattintson az időjárási megfigyelések és előrejelzések megtekintéséhez.

A térkép megváltoztatása: kattintson a fekete keresztel jelölt zöld gombra ráközelítéshez, a vonallal jelölt zöld gombra távolításhoz, vagy a zöld nyilakra a szomszédos térképek eléréséhez.


METAR-TAF: